createdAt,value
2023-11-08T00:15:31.322Z,9
2023-11-08T00:44:46.435Z,14
2023-11-08T01:14:00.061Z,9
2023-11-08T01:43:11.180Z,9
2023-11-08T02:12:29.716Z,7
2023-11-08T02:41:42.997Z,7
2023-11-08T03:11:06.241Z,9
2023-11-08T03:40:21.113Z,7
2023-11-08T04:09:32.926Z,7
2023-11-08T04:38:45.669Z,4
2023-11-08T05:08:00.707Z,7
2023-11-08T05:37:12.312Z,7
2023-11-08T06:06:19.305Z,6
2023-11-08T06:35:29.271Z,7
2023-11-08T07:04:36.421Z,7
2023-11-08T07:33:47.035Z,7
2023-11-08T08:02:49.076Z,7
2023-11-08T08:32:05.282Z,6
2023-11-08T09:01:27.913Z,6
2023-11-08T09:30:54.205Z,5
2023-11-08T10:00:01.424Z,3
2023-11-08T10:28:55.094Z,4
2023-11-08T10:58:17.051Z,5
2023-11-08T11:27:40.329Z,4
2023-11-08T11:57:03.665Z,4
2023-11-08T12:26:15.227Z,5
2023-11-08T12:55:24.232Z,4
2023-11-08T13:24:34.173Z,4
2023-11-08T13:53:44.736Z,4
2023-11-08T14:23:05.873Z,6
2023-11-08T14:52:26.013Z,6
2023-11-08T15:21:48.326Z,4
2023-11-08T15:50:56.604Z,12
2023-11-08T16:20:09.596Z,13
2023-11-08T16:49:09.229Z,7
2023-11-08T17:18:16.561Z,9
2023-11-08T17:47:18.740Z,10
2023-11-08T18:16:31.605Z,11
2023-11-08T18:45:45.633Z,12
2023-11-08T19:14:51.604Z,12
2023-11-08T19:44:16.883Z,11
2023-11-08T20:13:24.799Z,12
2023-11-08T20:42:37.784Z,11
2023-11-08T21:11:45.828Z,13
2023-11-08T21:40:57.018Z,9
2023-11-08T22:10:08.561Z,10
2023-11-08T22:39:19.246Z,8
2023-11-08T23:08:32.468Z,8
2023-11-08T23:37:33.154Z,8
